sensor_id;sensor_type;location;lat;lon;timestamp;pressure;altitude;pressure_sealevel;temperature;humidity
6942;BME280;3510;43.200;27.920;2024-02-28T00:00:24;101645.38;;;9.62;100.00
6942;BME280;3510;43.200;27.920;2024-02-28T00:02:51;101649.19;;;9.50;100.00
6942;BME280;3510;43.200;27.920;2024-02-28T00:05:18;101629.19;;;9.42;100.00
6942;BME280;3510;43.200;27.920;2024-02-28T00:07:45;101624.47;;;9.45;100.00
6942;BME280;3510;43.200;27.920;2024-02-28T00:10:14;101658.50;;;9.59;100.00
6942;BME280;3510;43.200;27.920;2024-02-28T00:12:41;101648.22;;;9.65;100.00
6942;BME280;3510;43.200;27.920;2024-02-28T00:15:08;101657.91;;;9.53;100.00
6942;BME280;3510;43.200;27.920;2024-02-28T00:17:38;101616.38;;;9.24;100.00
6942;BME280;3510;43.200;27.920;2024-02-28T00:20:07;101648.53;;;9.43;100.00
6942;BME280;3510;43.200;27.920;2024-02-28T00:22:35;101640.03;;;9.34;100.00
6942;BME280;3510;43.200;27.920;2024-02-28T00:25:03;101610.56;;;9.16;100.00
6942;BME280;3510;43.200;27.920;2024-02-28T00:27:33;101633.69;;;9.29;100.00
6942;BME280;3510;43.200;27.920;2024-02-28T00:30:03;101592.34;;;9.10;100.00
6942;BME280;3510;43.200;27.920;2024-02-28T00:32:31;101645.38;;;9.37;100.00
6942;BME280;3510;43.200;27.920;2024-02-28T00:34:58;101640.53;;;9.39;100.00
6942;BME280;3510;43.200;27.920;2024-02-28T00:37:25;101643.94;;;9.39;100.00
6942;BME280;3510;43.200;27.920;2024-02-28T00:39:51;101651.69;;;9.50;100.00
6942;BME280;3510;43.200;27.920;2024-02-28T00:42:18;101641.63;;;9.50;100.00
6942;BME280;3510;43.200;27.920;2024-02-28T00:44:46;101613.16;;;9.33;100.00
6942;BME280;3510;43.200;27.920;2024-02-28T00:47:13;101651.97;;;9.53;100.00
6942;BME280;3510;43.200;27.920;2024-02-28T00:49:40;101655.78;;;9.49;100.00
6942;BME280;3510;43.200;27.920;2024-02-28T00:52:10;101647.69;;;9.52;100.00
6942;BME280;3510;43.200;27.920;2024-02-28T00:54:37;101658.44;;;9.42;100.00
6942;BME280;3510;43.200;27.920;2024-02-28T00:57:04;101598.59;;;9.13;100.00
6942;BME280;3510;43.200;27.920;2024-02-28T00:59:31;101625.56;;;9.32;100.00
6942;BME280;3510;43.200;27.920;2024-02-28T01:01:59;101618.81;;;9.39;100.00
6942;BME280;3510;43.200;27.920;2024-02-28T01:04:26;101601.25;;;9.15;100.00
6942;BME280;3510;43.200;27.920;2024-02-28T01:06:53;101655.19;;;9.43;100.00
6942;BME280;3510;43.200;27.920;2024-02-28T01:09:21;101600.91;;;9.12;100.00
6942;BME280;3510;43.200;27.920;2024-02-28T01:11:48;101613.91;;;9.08;100.00
6942;BME280;3510;43.200;27.920;2024-02-28T01:14:15;101658.47;;;9.26;100.00
6942;BME280;3510;43.200;27.920;2024-02-28T01:16:42;101655.72;;;9.32;100.00
6942;BME280;3510;43.200;27.920;2024-02-28T01:19:10;101623.50;;;9.12;100.00
6942;BME280;3510;43.200;27.920;2024-02-28T01:21:38;101636.38;;;9.15;100.00
6942;BME280;3510;43.200;27.920;2024-02-28T01:24:05;101619.84;;;8.92;100.00
6942;BME280;3510;43.200;27.920;2024-02-28T01:26:32;101624.63;;;8.98;100.00
6942;BME280;3510;43.200;27.920;2024-02-28T01:29:00;101642.25;;;9.07;100.00
6942;BME280;3510;43.200;27.920;2024-02-28T01:31:26;101654.66;;;9.05;100.00
6942;BME280;3510;43.200;27.920;2024-02-28T01:33:53;101626.34;;;8.75;100.00
6942;BME280;3510;43.200;27.920;2024-02-28T01:36:22;101637.94;;;8.81;100.00
6942;BME280;3510;43.200;27.920;2024-02-28T01:38:51;101632.28;;;8.75;100.00
6942;BME280;3510;43.200;27.920;2024-02-28T01:41:19;101614.19;;;8.46;100.00
6942;BME280;3510;43.200;27.920;2024-02-28T01:43:46;101628.22;;;8.53;100.00
6942;BME280;3510;43.200;27.920;2024-02-28T01:46:20;101624.09;;;8.37;100.00
6942;BME280;3510;43.200;27.920;2024-02-28T01:48:49;101652.69;;;8.46;100.00
6942;BME280;3510;43.200;27.920;2024-02-28T01:51:16;101658.28;;;8.37;100.00
6942;BME280;3510;43.200;27.920;2024-02-28T01:53:46;101651.50;;;8.36;100.00
6942;BME280;3510;43.200;27.920;2024-02-28T01:56:14;101642.69;;;8.23;100.00
6942;BME280;3510;43.200;27.920;2024-02-28T01:58:42;101633.91;;;8.04;100.00
6942;BME280;3510;43.200;27.920;2024-02-28T02:01:10;101621.00;;;7.85;100.00
6942;BME280;3510;43.200;27.920;2024-02-28T02:03:38;101634.63;;;7.87;100.00
6942;BME280;3510;43.200;27.920;2024-02-28T02:06:05;101624.25;;;7.84;100.00
6942;BME280;3510;43.200;27.920;2024-02-28T02:08:32;101648.75;;;7.87;100.00
6942;BME280;3510;43.200;27.920;2024-02-28T02:11:02;101644.03;;;7.74;100.00
6942;BME280;3510;43.200;27.920;2024-02-28T02:13:29;101611.13;;;7.48;100.00
6942;BME280;3510;43.200;27.920;2024-02-28T02:15:56;101649.75;;;7.73;100.00
6942;BME280;3510;43.200;27.920;2024-02-28T02:18:23;101629.94;;;7.44;100.00
6942;BME280;3510;43.200;27.920;2024-02-28T02:20:52;101598.22;;;7.29;100.00
6942;BME280;3510;43.200;27.920;2024-02-28T02:23:22;101645.09;;;7.53;100.00
6942;BME280;3510;43.200;27.920;2024-02-28T02:25:49;101619.31;;;7.31;100.00
6942;BME280;3510;43.200;27.920;2024-02-28T02:28:16;101612.19;;;7.27;100.00
6942;BME280;3510;43.200;27.920;2024-02-28T02:30:43;101662.78;;;7.55;100.00
6942;BME280;3510;43.200;27.920;2024-02-28T02:33:10;101587.75;;;7.17;100.00
6942;BME280;3510;43.200;27.920;2024-02-28T02:35:37;101664.44;;;7.70;100.00
6942;BME280;3510;43.200;27.920;2024-02-28T02:38:04;101666.63;;;7.67;100.00
6942;BME280;3510;43.200;27.920;2024-02-28T02:40:32;101669.13;;;7.67;100.00
6942;BME280;3510;43.200;27.920;2024-02-28T02:42:59;101655.66;;;7.50;100.00
6942;BME280;3510;43.200;27.920;2024-02-28T02:45:26;101654.13;;;7.37;100.00
6942;BME280;3510;43.200;27.920;2024-02-28T02:47:53;101629.47;;;7.10;100.00
6942;BME280;3510;43.200;27.920;2024-02-28T02:50:20;101664.41;;;7.24;100.00
6942;BME280;3510;43.200;27.920;2024-02-28T02:52:47;101666.69;;;7.30;100.00
6942;BME280;3510;43.200;27.920;2024-02-28T02:55:14;101628.75;;;7.03;100.00
6942;BME280;3510;43.200;27.920;2024-02-28T02:57:43;101640.50;;;7.12;100.00
6942;BME280;3510;43.200;27.920;2024-02-28T03:00:11;101631.66;;;6.99;100.00
6942;BME280;3510;43.200;27.920;2024-02-28T03:02:38;101661.13;;;7.02;100.00
6942;BME280;3510;43.200;27.920;2024-02-28T03:05:10;101677.03;;;7.02;100.00
6942;BME280;3510;43.200;27.920;2024-02-28T03:07:37;101688.13;;;7.05;100.00
6942;BME280;3510;43.200;27.920;2024-02-28T03:10:05;101685.41;;;7.10;100.00
6942;BME280;3510;43.200;27.920;2024-02-28T03:12:32;101648.47;;;6.93;100.00
6942;BME280;3510;43.200;27.920;2024-02-28T03:15:02;101655.63;;;6.97;100.00
6942;BME280;3510;43.200;27.920;2024-02-28T03:17:29;101674.53;;;7.02;100.00
6942;BME280;3510;43.200;27.920;2024-02-28T03:19:56;101592.25;;;6.45;100.00
6942;BME280;3510;43.200;27.920;2024-02-28T03:22:23;101678.47;;;7.00;100.00
6942;BME280;3510;43.200;27.920;2024-02-28T03:24:50;101677.44;;;6.91;100.00
6942;BME280;3510;43.200;27.920;2024-02-28T03:27:17;101684.94;;;6.98;100.00
6942;BME280;3510;43.200;27.920;2024-02-28T03:29:44;101688.66;;;7.02;100.00
6942;BME280;3510;43.200;27.920;2024-02-28T03:32:12;101651.44;;;6.75;100.00
6942;BME280;3510;43.200;27.920;2024-02-28T03:34:40;101650.72;;;6.76;100.00
6942;BME280;3510;43.200;27.920;2024-02-28T03:37:06;101635.34;;;6.73;100.00
6942;BME280;3510;43.200;27.920;2024-02-28T03:39:33;101659.81;;;6.83;100.00
6942;BME280;3510;43.200;27.920;2024-02-28T03:42:00;101679.78;;;6.90;100.00
6942;BME280;3510;43.200;27.920;2024-02-28T03:44:27;101683.38;;;6.85;100.00
6942;BME280;3510;43.200;27.920;2024-02-28T03:46:54;101692.34;;;6.75;100.00
6942;BME280;3510;43.200;27.920;2024-02-28T03:49:23;101695.56;;;6.67;100.00
6942;BME280;3510;43.200;27.920;2024-02-28T03:51:49;101642.06;;;6.37;100.00
6942;BME280;3510;43.200;27.920;2024-02-28T03:54:16;101656.19;;;6.36;100.00
6942;BME280;3510;43.200;27.920;2024-02-28T03:56:43;101661.19;;;6.36;100.00
6942;BME280;3510;43.200;27.920;2024-02-28T03:59:11;101567.38;;;5.88;100.00
6942;BME280;3510;43.200;27.920;2024-02-28T04:01:38;101695.91;;;6.70;100.00
6942;BME280;3510;43.200;27.920;2024-02-28T04:04:04;101664.03;;;6.39;100.00
6942;BME280;3510;43.200;27.920;2024-02-28T04:06:34;101684.38;;;6.57;100.00
6942;BME280;3510;43.200;27.920;2024-02-28T04:09:02;101699.72;;;6.52;100.00
6942;BME280;3510;43.200;27.920;2024-02-28T04:11:31;101708.31;;;6.47;100.00
6942;BME280;3510;43.200;27.920;2024-02-28T04:13:58;101686.91;;;6.35;100.00
6942;BME280;3510;43.200;27.920;2024-02-28T04:16:41;101700.06;;;6.55;100.00
6942;BME280;3510;43.200;27.920;2024-02-28T04:19:09;101487.94;;;5.27;100.00
6942;BME280;3510;43.200;27.920;2024-02-28T04:21:38;101613.22;;;5.89;100.00
6942;BME280;3510;43.200;27.920;2024-02-28T04:24:05;101567.41;;;5.67;100.00
6942;BME280;3510;43.200;27.920;2024-02-28T04:26:32;101684.06;;;6.32;100.00
6942;BME280;3510;43.200;27.920;2024-02-28T04:28:59;101690.81;;;6.47;100.00
6942;BME280;3510;43.200;27.920;2024-02-28T04:31:30;101663.50;;;6.42;100.00
6942;BME280;3510;43.200;27.920;2024-02-28T04:33:57;101655.63;;;6.53;100.00
6942;BME280;3510;43.200;27.920;2024-02-28T04:36:24;101528.31;;;5.96;100.00
6942;BME280;3510;43.200;27.920;2024-02-28T04:38:53;101604.81;;;6.24;100.00
6942;BME280;3510;43.200;27.920;2024-02-28T04:41:19;101668.44;;;6.63;100.00
6942;BME280;3510;43.200;27.920;2024-02-28T04:43:46;101589.81;;;6.24;100.00
6942;BME280;3510;43.200;27.920;2024-02-28T04:46:14;101620.34;;;6.21;100.00
6942;BME280;3510;43.200;27.920;2024-02-28T04:48:41;101604.84;;;6.10;100.00
6942;BME280;3510;43.200;27.920;2024-02-28T04:51:08;101664.19;;;6.41;100.00
6942;BME280;3510;43.200;27.920;2024-02-28T04:53:35;101668.66;;;6.43;100.00
6942;BME280;3510;43.200;27.920;2024-02-28T04:56:05;101712.03;;;6.58;100.00
6942;BME280;3510;43.200;27.920;2024-02-28T04:58:32;101680.09;;;6.41;100.00
6942;BME280;3510;43.200;27.920;2024-02-28T05:00:59;101717.56;;;6.55;100.00
6942;BME280;3510;43.200;27.920;2024-02-28T05:03:26;101715.44;;;6.51;100.00
6942;BME280;3510;43.200;27.920;2024-02-28T05:05:54;101728.81;;;6.59;100.00
6942;BME280;3510;43.200;27.920;2024-02-28T05:08:21;101687.28;;;6.31;100.00
6942;BME280;3510;43.200;27.920;2024-02-28T05:10:52;101698.31;;;6.40;100.00
6942;BME280;3510;43.200;27.920;2024-02-28T05:13:21;101725.97;;;6.56;100.00
6942;BME280;3510;43.200;27.920;2024-02-28T05:15:49;101692.44;;;6.40;100.00
6942;BME280;3510;43.200;27.920;2024-02-28T05:18:16;101696.50;;;6.53;100.00
6942;BME280;3510;43.200;27.920;2024-02-28T05:20:43;101742.50;;;6.84;100.00
6942;BME280;3510;43.200;27.920;2024-02-28T05:23:11;101669.69;;;6.60;100.00
6942;BME280;3510;43.200;27.920;2024-02-28T05:25:38;101691.97;;;6.79;100.00
6942;BME280;3510;43.200;27.920;2024-02-28T05:28:05;101725.66;;;7.05;100.00
6942;BME280;3510;43.200;27.920;2024-02-28T05:30:33;101745.09;;;7.14;100.00
6942;BME280;3510;43.200;27.920;2024-02-28T05:33:14;101695.34;;;6.87;100.00
6942;BME280;3510;43.200;27.920;2024-02-28T05:35:55;101747.03;;;7.24;100.00
6942;BME280;3510;43.200;27.920;2024-02-28T05:38:22;101748.34;;;7.43;100.00
6942;BME280;3510;43.200;27.920;2024-02-28T05:40:49;101719.50;;;7.24;100.00
6942;BME280;3510;43.200;27.920;2024-02-28T05:43:15;101720.50;;;7.33;100.00
6942;BME280;3510;43.200;27.920;2024-02-28T05:45:58;101674.31;;;7.08;100.00
6942;BME280;3510;43.200;27.920;2024-02-28T05:48:40;101735.13;;;7.37;100.00
6942;BME280;3510;43.200;27.920;2024-02-28T05:51:21;101727.94;;;7.47;100.00
6942;BME280;3510;43.200;27.920;2024-02-28T05:54:01;101717.97;;;7.40;100.00
6942;BME280;3510;43.200;27.920;2024-02-28T05:56:42;101761.53;;;7.87;100.00
6942;BME280;3510;43.200;27.920;2024-02-28T05:59:09;101770.28;;;7.90;100.00
6942;BME280;3510;43.200;27.920;2024-02-28T06:01:37;101765.56;;;7.93;100.00
6942;BME280;3510;43.200;27.920;2024-02-28T06:04:05;101774.84;;;8.02;100.00
6942;BME280;3510;43.200;27.920;2024-02-28T06:06:46;101731.56;;;7.72;100.00
6942;BME280;3510;43.200;27.920;2024-02-28T06:09:27;101775.00;;;8.03;100.00
6942;BME280;3510;43.200;27.920;2024-02-28T06:11:54;101773.00;;;8.08;100.00
6942;BME280;3510;43.200;27.920;2024-02-28T06:14:34;101771.06;;;8.05;100.00
6942;BME280;3510;43.200;27.920;2024-02-28T06:17:02;101775.28;;;8.13;100.00
6942;BME280;3510;43.200;27.920;2024-02-28T06:19:29;101765.25;;;8.13;100.00
6942;BME280;3510;43.200;27.920;2024-02-28T06:22:10;101756.41;;;8.24;100.00
6942;BME280;3510;43.200;27.920;2024-02-28T06:24:51;101788.34;;;8.41;100.00
6942;BME280;3510;43.200;27.920;2024-02-28T06:27:17;101747.53;;;8.35;100.00
6942;BME280;3510;43.200;27.920;2024-02-28T06:29:44;101783.53;;;8.58;100.00
6942;BME280;3510;43.200;27.920;2024-02-28T06:35:23;101745.41;;;8.54;100.00
6942;BME280;3510;43.200;27.920;2024-02-28T06:38:04;101746.25;;;8.77;100.00
6942;BME280;3510;43.200;27.920;2024-02-28T06:40:44;101727.38;;;8.81;100.00
6942;BME280;3510;43.200;27.920;2024-02-28T06:43:25;101795.81;;;9.03;100.00
6942;BME280;3510;43.200;27.920;2024-02-28T06:46:06;101780.31;;;9.23;100.00
6942;BME280;3510;43.200;27.920;2024-02-28T06:48:47;101785.50;;;9.08;100.00
6942;BME280;3510;43.200;27.920;2024-02-28T06:51:17;101806.69;;;9.66;100.00
6942;BME280;3510;43.200;27.920;2024-02-28T06:53:58;101813.72;;;9.78;100.00
6942;BME280;3510;43.200;27.920;2024-02-28T06:56:38;101817.88;;;10.02;100.00
6942;BME280;3510;43.200;27.920;2024-02-28T06:59:05;101771.19;;;9.88;100.00
6942;BME280;3510;43.200;27.920;2024-02-28T07:01:32;101808.72;;;10.11;100.00
6942;BME280;3510;43.200;27.920;2024-02-28T07:04:13;101809.97;;;10.23;100.00
6942;BME280;3510;43.200;27.920;2024-02-28T07:07:11;101835.78;;;10.54;100.00
6942;BME280;3510;43.200;27.920;2024-02-28T07:09:52;101801.72;;;10.57;100.00
6942;BME280;3510;43.200;27.920;2024-02-28T07:12:33;101836.13;;;10.74;100.00
6942;BME280;3510;43.200;27.920;2024-02-28T07:15:13;101832.34;;;10.86;100.00
6942;BME280;3510;43.200;27.920;2024-02-28T07:17:54;101789.72;;;10.55;100.00
6942;BME280;3510;43.200;27.920;2024-02-28T07:20:21;101790.34;;;10.61;100.00
6942;BME280;3510;43.200;27.920;2024-02-28T07:26:15;101720.50;;;10.25;100.00
6942;BME280;3510;43.200;27.920;2024-02-28T07:28:56;101816.22;;;11.02;100.00
6942;BME280;3510;43.200;27.920;2024-02-28T07:31:23;101830.28;;;11.00;100.00
6942;BME280;3510;43.200;27.920;2024-02-28T07:34:21;101801.38;;;11.05;100.00
6942;BME280;3510;43.200;27.920;2024-02-28T07:37:02;101836.25;;;11.44;100.00
6942;BME280;3510;43.200;27.920;2024-02-28T07:39:42;101744.63;;;11.00;100.00
6942;BME280;3510;43.200;27.920;2024-02-28T07:45:23;101841.44;;;11.97;100.00
6942;BME280;3510;43.200;27.920;2024-02-28T07:48:04;101838.78;;;11.96;100.00
6942;BME280;3510;43.200;27.920;2024-02-28T07:50:31;101755.47;;;11.33;100.00
6942;BME280;3510;43.200;27.920;2024-02-28T07:52:58;101840.97;;;11.75;100.00
6942;BME280;3510;43.200;27.920;2024-02-28T07:55:25;101842.03;;;11.77;100.00
6942;BME280;3510;43.200;27.920;2024-02-28T07:57:53;101779.50;;;11.38;100.00
6942;BME280;3510;43.200;27.920;2024-02-28T08:03:46;101844.25;;;11.83;100.00
6942;BME280;3510;43.200;27.920;2024-02-28T08:06:13;101728.63;;;11.08;100.00
6942;BME280;3510;43.200;27.920;2024-02-28T08:08:53;101713.69;;;10.83;100.00
6942;BME280;3510;43.200;27.920;2024-02-28T08:11:20;101785.25;;;11.55;100.00
6942;BME280;3510;43.200;27.920;2024-02-28T08:13:46;101771.03;;;11.47;100.00
6942;BME280;3510;43.200;27.920;2024-02-28T08:16:27;101771.41;;;11.77;100.00
6942;BME280;3510;43.200;27.920;2024-02-28T08:38:25;101811.47;;;11.31;100.00
6942;BME280;3510;43.200;27.920;2024-02-28T08:40:52;101850.31;;;11.42;100.00
6942;BME280;3510;43.200;27.920;2024-02-28T08:43:19;101840.25;;;11.42;100.00
6942;BME280;3510;43.200;27.920;2024-02-28T08:46:00;101839.97;;;11.56;100.00
6942;BME280;3510;43.200;27.920;2024-02-28T08:48:40;101854.06;;;11.54;100.00
6942;BME280;3510;43.200;27.920;2024-02-28T08:51:07;101794.16;;;11.17;100.00
6942;BME280;3510;43.200;27.920;2024-02-28T08:53:36;101847.81;;;11.68;100.00
6942;BME280;3510;43.200;27.920;2024-02-28T08:56:03;101855.69;;;11.62;100.00
6942;BME280;3510;43.200;27.920;2024-02-28T08:58:30;101849.59;;;11.86;100.00
6942;BME280;3510;43.200;27.920;2024-02-28T09:00:57;101848.84;;;11.78;100.00
6942;BME280;3510;43.200;27.920;2024-02-28T09:03:38;101788.66;;;11.55;100.00
6942;BME280;3510;43.200;27.920;2024-02-28T09:06:05;101805.56;;;11.48;100.00
6942;BME280;3510;43.200;27.920;2024-02-28T09:08:32;101861.75;;;11.81;100.00
6942;BME280;3510;43.200;27.920;2024-02-28T09:11:00;101821.84;;;11.77;100.00
6942;BME280;3510;43.200;27.920;2024-02-28T09:13:28;101868.31;;;12.05;100.00
6942;BME280;3510;43.200;27.920;2024-02-28T09:16:08;101861.59;;;12.15;100.00
6942;BME280;3510;43.200;27.920;2024-02-28T09:18:35;101835.03;;;11.75;100.00
6942;BME280;3510;43.200;27.920;2024-02-28T09:21:16;101845.59;;;11.97;100.00
6942;BME280;3510;43.200;27.920;2024-02-28T09:23:43;101836.13;;;11.68;100.00
6942;BME280;3510;43.200;27.920;2024-02-28T09:26:11;101798.72;;;11.38;100.00
6942;BME280;3510;43.200;27.920;2024-02-28T09:28:38;101836.13;;;11.68;100.00
6942;BME280;3510;43.200;27.920;2024-02-28T09:31:05;101857.78;;;11.83;100.00
6942;BME280;3510;43.200;27.920;2024-02-28T09:33:32;101801.69;;;11.60;100.00
6942;BME280;3510;43.200;27.920;2024-02-28T09:36:13;101836.88;;;11.84;100.00
6942;BME280;3510;43.200;27.920;2024-02-28T09:38:40;101861.34;;;11.94;100.00
6942;BME280;3510;43.200;27.920;2024-02-28T09:41:08;101799.03;;;11.58;100.00
6942;BME280;3510;43.200;27.920;2024-02-28T09:43:42;101867.22;;;12.12;100.00
6942;BME280;3510;43.200;27.920;2024-02-28T09:46:09;101872.13;;;12.19;100.00
6942;BME280;3510;43.200;27.920;2024-02-28T09:48:38;101849.91;;;11.98;100.00
6942;BME280;3510;43.200;27.920;2024-02-28T09:51:05;101867.94;;;12.20;100.00
6942;BME280;3510;43.200;27.920;2024-02-28T09:53:33;101824.22;;;12.02;100.00
6942;BME280;3510;43.200;27.920;2024-02-28T09:55:59;101863.22;;;12.14;100.00
6942;BME280;3510;43.200;27.920;2024-02-28T09:58:27;101864.25;;;12.16;100.00
6942;BME280;3510;43.200;27.920;2024-02-28T10:00:59;101844.69;;;12.14;100.00
6942;BME280;3510;43.200;27.920;2024-02-28T10:03:27;101867.53;;;12.24;100.00
6942;BME280;3510;43.200;27.920;2024-02-28T10:05:57;101861.84;;;12.35;100.00
6942;BME280;3510;43.200;27.920;2024-02-28T10:08:24;101840.47;;;12.31;100.00
6942;BME280;3510;43.200;27.920;2024-02-28T10:10:53;101863.47;;;12.34;100.00
6942;BME280;3510;43.200;27.920;2024-02-28T10:13:23;101860.94;;;12.43;100.00
6942;BME280;3510;43.200;27.920;2024-02-28T10:15:49;101857.06;;;12.47;100.00
6942;BME280;3510;43.200;27.920;2024-02-28T10:18:18;101825.78;;;12.27;100.00
6942;BME280;3510;43.200;27.920;2024-02-28T10:20:44;101861.56;;;12.32;100.00
6942;BME280;3510;43.200;27.920;2024-02-28T10:23:11;101857.34;;;12.50;100.00
6942;BME280;3510;43.200;27.920;2024-02-28T10:25:45;101845.22;;;12.28;100.00
6942;BME280;3510;43.200;27.920;2024-02-28T10:28:12;101844.50;;;12.21;100.00
6942;BME280;3510;43.200;27.920;2024-02-28T10:30:40;101834.03;;;12.44;100.00
6942;BME280;3510;43.200;27.920;2024-02-28T10:33:10;101847.09;;;12.48;100.00
6942;BME280;3510;43.200;27.920;2024-02-28T10:35:40;101831.25;;;12.32;100.00
6942;BME280;3510;43.200;27.920;2024-02-28T10:38:09;101840.91;;;12.36;100.00
6942;BME280;3510;43.200;27.920;2024-02-28T10:40:36;101840.72;;;12.34;100.00
6942;BME280;3510;43.200;27.920;2024-02-28T10:43:04;101763.38;;;11.99;100.00
6942;BME280;3510;43.200;27.920;2024-02-28T10:45:32;101797.28;;;12.56;100.00
6942;BME280;3510;43.200;27.920;2024-02-28T10:48:14;101839.28;;;12.64;100.00
6942;BME280;3510;43.200;27.920;2024-02-28T10:50:43;101835.28;;;12.66;100.00
6942;BME280;3510;43.200;27.920;2024-02-28T10:53:13;101835.50;;;12.42;100.00
6942;BME280;3510;43.200;27.920;2024-02-28T10:55:41;101835.66;;;12.79;100.00
6942;BME280;3510;43.200;27.920;2024-02-28T10:58:10;101833.66;;;12.94;100.00
6942;BME280;3510;43.200;27.920;2024-02-28T11:00:38;101831.56;;;12.90;100.00
6942;BME280;3510;43.200;27.920;2024-02-28T11:03:07;101832.50;;;12.82;100.00
6942;BME280;3510;43.200;27.920;2024-02-28T11:05:36;101746.63;;;12.35;100.00
6942;BME280;3510;43.200;27.920;2024-02-28T11:08:08;101708.06;;;12.28;100.00
6942;BME280;3510;43.200;27.920;2024-02-28T11:10:35;101812.41;;;12.65;100.00
6942;BME280;3510;43.200;27.920;2024-02-28T11:13:02;101824.22;;;12.83;100.00
6942;BME280;3510;43.200;27.920;2024-02-28T11:15:29;101804.44;;;13.06;100.00
6942;BME280;3510;43.200;27.920;2024-02-28T11:18:11;101821.34;;;13.07;100.00
6942;BME280;3510;43.200;27.920;2024-02-28T11:20:38;101826.06;;;13.41;100.00
6942;BME280;3510;43.200;27.920;2024-02-28T11:23:07;101823.81;;;13.25;100.00
6942;BME280;3510;43.200;27.920;2024-02-28T11:25:35;101813.69;;;13.25;100.00
6942;BME280;3510;43.200;27.920;2024-02-28T11:28:04;101807.72;;;13.05;100.00
6942;BME280;3510;43.200;27.920;2024-02-28T11:30:31;101805.41;;;13.17;100.00
6942;BME280;3510;43.200;27.920;2024-02-28T11:32:58;101810.97;;;13.51;100.00
6942;BME280;3510;43.200;27.920;2024-02-28T11:35:26;101793.94;;;13.40;100.00
6942;BME280;3510;43.200;27.920;2024-02-28T11:41:05;101774.38;;;13.10;100.00
6942;BME280;3510;43.200;27.920;2024-02-28T11:43:33;101743.19;;;13.09;100.00
6942;BME280;3510;43.200;27.920;2024-02-28T11:46:01;101779.47;;;13.28;100.00
6942;BME280;3510;43.200;27.920;2024-02-28T11:48:29;101752.38;;;13.08;100.00
6942;BME280;3510;43.200;27.920;2024-02-28T11:50:58;101799.81;;;13.49;100.00
6942;BME280;3510;43.200;27.920;2024-02-28T11:53:25;101751.94;;;13.31;100.00
6942;BME280;3510;43.200;27.920;2024-02-28T11:55:53;101794.13;;;13.51;100.00
6942;BME280;3510;43.200;27.920;2024-02-28T11:58:22;101724.09;;;12.94;100.00
6942;BME280;3510;43.200;27.920;2024-02-28T12:00:50;101793.34;;;13.42;100.00
6942;BME280;3510;43.200;27.920;2024-02-28T12:03:21;101770.13;;;13.19;100.00
6942;BME280;3510;43.200;27.920;2024-02-28T12:05:50;101779.16;;;13.06;100.00
6942;BME280;3510;43.200;27.920;2024-02-28T12:08:20;101715.03;;;12.96;100.00
6942;BME280;3510;43.200;27.920;2024-02-28T12:10:47;101751.88;;;12.94;100.00
6942;BME280;3510;43.200;27.920;2024-02-28T12:13:18;101773.69;;;13.02;100.00
6942;BME280;3510;43.200;27.920;2024-02-28T12:15:46;101674.81;;;12.51;100.00
6942;BME280;3510;43.200;27.920;2024-02-28T12:18:18;101783.72;;;12.92;100.00
6942;BME280;3510;43.200;27.920;2024-02-28T12:20:46;101739.13;;;12.18;100.00
6942;BME280;3510;43.200;27.920;2024-02-28T12:23:15;101773.19;;;11.96;100.00
6942;BME280;3510;43.200;27.920;2024-02-28T12:25:43;101659.75;;;10.99;100.00
6942;BME280;3510;43.200;27.920;2024-02-28T12:28:10;101734.66;;;11.62;100.00
6942;BME280;3510;43.200;27.920;2024-02-28T12:30:40;101739.06;;;11.82;100.00
6942;BME280;3510;43.200;27.920;2024-02-28T12:33:10;101696.13;;;11.54;100.00
6942;BME280;3510;43.200;27.920;2024-02-28T12:35:38;101775.91;;;12.16;100.00
6942;BME280;3510;43.200;27.920;2024-02-28T12:38:05;101731.59;;;12.01;100.00
6942;BME280;3510;43.200;27.920;2024-02-28T12:40:32;101747.25;;;11.88;100.00
6942;BME280;3510;43.200;27.920;2024-02-28T12:43:04;101759.94;;;12.07;100.00
6942;BME280;3510;43.200;27.920;2024-02-28T12:45:31;101683.91;;;11.85;100.00
6942;BME280;3510;43.200;27.920;2024-02-28T12:47:59;101655.38;;;11.95;100.00
6942;BME280;3510;43.200;27.920;2024-02-28T12:50:29;101603.53;;;11.71;100.00
6942;BME280;3510;43.200;27.920;2024-02-28T12:52:59;101688.25;;;12.05;100.00
6942;BME280;3510;43.200;27.920;2024-02-28T12:55:26;101733.38;;;12.38;100.00
6942;BME280;3510;43.200;27.920;2024-02-28T12:57:54;101773.44;;;12.44;100.00
6942;BME280;3510;43.200;27.920;2024-02-28T13:00:20;101716.84;;;11.86;100.00
6942;BME280;3510;43.200;27.920;2024-02-28T13:02:47;101767.63;;;12.17;100.00
6942;BME280;3510;43.200;27.920;2024-02-28T13:05:14;101771.38;;;12.03;100.00
6942;BME280;3510;43.200;27.920;2024-02-28T13:07:43;101761.81;;;12.18;100.00
6942;BME280;3510;43.200;27.920;2024-02-28T13:10:11;101728.13;;;11.73;100.00
6942;BME280;3510;43.200;27.920;2024-02-28T13:12:38;101706.84;;;11.43;100.00
6942;BME280;3510;43.200;27.920;2024-02-28T13:15:06;101766.38;;;11.77;100.00
6942;BME280;3510;43.200;27.920;2024-02-28T13:17:33;101764.03;;;11.61;100.00
6942;BME280;3510;43.200;27.920;2024-02-28T13:20:00;101757.66;;;11.65;100.00
6942;BME280;3510;43.200;27.920;2024-02-28T13:22:28;101760.00;;;11.63;100.00
6942;BME280;3510;43.200;27.920;2024-02-28T13:24:57;101728.34;;;11.39;100.00
6942;BME280;3510;43.200;27.920;2024-02-28T13:27:24;101695.31;;;11.10;100.00
6942;BME280;3510;43.200;27.920;2024-02-28T13:29:51;101700.81;;;10.98;100.00
6942;BME280;3510;43.200;27.920;2024-02-28T13:32:18;101759.91;;;11.19;100.00
6942;BME280;3510;43.200;27.920;2024-02-28T13:34:45;101756.47;;;11.01;100.00
6942;BME280;3510;43.200;27.920;2024-02-28T13:37:12;101752.91;;;10.73;100.00
6942;BME280;3510;43.200;27.920;2024-02-28T13:39:39;101745.63;;;10.67;100.00
6942;BME280;3510;43.200;27.920;2024-02-28T13:42:08;101748.28;;;10.60;100.00